Time;durP1;ratioP1;P1;durP2;ratioP2;P2;SDS_P1;SDS_P2;PMS_P1;PMS_P2;Temp;Humidity;BMP_temperature;BMP_pressure;BME280_temperature;BME280_humidity;BME280_pressure;Samples;Min_cycle;Max_cycle;Signal;HPM_P1;HPM_P2
2022/03/06 00:01:45;;;;;;;95.15;49.70;;;1.00;99.90;;;;;;2602560;54;20033;31
2022/03/06 00:04:24;;;;;;;79.72;42.80;;;1.00;99.90;;;;;;2601822;54;20905;31
2022/03/06 00:07:01;;;;;;;78.15;42.10;;;0.90;99.90;;;;;;2772362;31;21694;31
2022/03/06 00:09:41;;;;;;;76.65;43.17;;;0.90;99.90;;;;;;2602471;54;20029;31
2022/03/06 00:12:17;;;;;;;66.40;35.22;;;0.90;99.90;;;;;;2602786;54;20034;31
2022/03/06 00:14:52;;;;;;;67.80;40.15;;;0.90;99.90;;;;;;2602538;54;20052;31
2022/03/06 00:17:28;;;;;;;66.07;37.15;;;0.90;99.90;;;;;;2602780;54;20090;31
2022/03/06 00:20:08;;;;;;;65.97;35.97;;;0.90;99.90;;;;;;2601687;54;20108;31
2022/03/06 00:22:43;;;;;;;70.25;36.40;;;0.90;99.90;;;;;;2621018;47;22366;31
2022/03/06 00:25:21;;;;;;;93.38;50.15;;;1.00;99.90;;;;;;2602472;54;20903;31
2022/03/06 00:27:57;;;;;;;82.17;43.43;;;0.90;99.90;;;;;;2621021;47;20031;31
2022/03/06 00:30:33;;;;;;;76.38;41.88;;;0.90;99.90;;;;;;2602435;54;20810;31
2022/03/06 00:33:10;;;;;;;64.82;33.20;;;0.90;99.90;;;;;;2602545;54;21637;31
2022/03/06 00:35:46;;;;;;;74.80;40.40;;;0.90;99.90;;;;;;2602515;54;20136;31
2022/03/06 00:38:22;;;;;;;69.47;37.17;;;0.90;99.90;;;;;;2621227;47;21632;31
2022/03/06 00:41:05;;;;;;;71.10;38.10;;;0.90;99.90;;;;;;2620835;47;20034;31
2022/03/06 00:43:44;;;;;;;72.10;41.40;;;0.80;99.90;;;;;;2620431;47;20030;31
2022/03/06 00:46:19;;;;;;;65.85;37.85;;;0.80;99.90;;;;;;2602405;54;20592;31
2022/03/06 00:48:59;;;;;;;71.57;36.13;;;0.80;99.90;;;;;;2602479;54;20986;31
2022/03/06 00:51:35;;;;;;;60.40;34.63;;;0.80;99.90;;;;;;2602184;54;20085;31
2022/03/06 00:54:10;;;;;;;53.75;31.42;;;0.80;99.90;;;;;;2602420;54;20030;31
2022/03/06 00:56:53;;;;;;;58.80;32.22;;;0.80;99.90;;;;;;2602647;54;21628;31
2022/03/06 00:59:33;;;;;;;52.67;28.45;;;0.80;99.90;;;;;;2602356;54;20033;31
2022/03/06 01:02:08;;;;;;;47.00;28.90;;;0.90;99.90;;;;;;2603016;54;20804;31
2022/03/06 01:04:44;;;;;;;53.60;29.98;;;0.80;99.90;;;;;;2622160;46;20749;31
2022/03/06 01:07:20;;;;;;;47.00;27.40;;;0.90;99.90;;;;;;2603460;54;20094;31
2022/03/06 01:09:55;;;;;;;45.63;26.23;;;0.80;99.90;;;;;;2603384;54;20038;31
2022/03/06 01:12:33;;;;;;;46.60;25.88;;;0.90;99.90;;;;;;2603164;54;20731;31
2022/03/06 01:15:12;;;;;;;48.20;27.98;;;0.80;99.90;;;;;;2603436;54;20054;31
2022/03/06 01:17:47;;;;;;;64.85;35.00;;;0.80;99.90;;;;;;2603392;54;20030;31
2022/03/06 01:20:23;;;;;;;71.75;38.88;;;0.80;99.90;;;;;;2603213;54;20867;31
2022/03/06 01:23:00;;;;;;;73.85;39.65;;;0.70;99.90;;;;;;2603214;54;20030;31
2022/03/06 01:25:35;;;;;;;69.47;37.87;;;0.70;99.90;;;;;;2603189;54;20033;31
2022/03/06 01:28:17;;;;;;;59.47;33.33;;;0.80;99.90;;;;;;2621584;46;20053;31
2022/03/06 01:30:52;;;;;;;57.13;33.17;;;0.80;99.90;;;;;;2603158;54;20894;31
2022/03/06 01:33:27;;;;;;;50.90;27.65;;;0.80;99.90;;;;;;2602444;54;21881;31
2022/03/06 01:36:03;;;;;;;45.92;25.02;;;0.80;99.90;;;;;;2621741;46;20838;31
2022/03/06 01:38:38;;;;;;;57.80;30.90;;;0.80;99.90;;;;;;2603027;54;20034;31
2022/03/06 01:41:15;;;;;;;40.45;23.50;;;0.80;99.90;;;;;;2602868;54;20104;31
2022/03/06 01:43:58;;;;;;;49.95;28.02;;;0.90;99.90;;;;;;2621283;46;20797;31
2022/03/06 01:46:35;;;;;;;49.20;28.80;;;0.80;99.90;;;;;;2621550;46;20038;31
2022/03/06 01:49:10;;;;;;;47.10;26.65;;;0.80;99.90;;;;;;2602939;54;20026;31
2022/03/06 01:51:46;;;;;;;46.63;27.02;;;0.80;99.90;;;;;;2603070;54;20039;31
2022/03/06 01:54:21;;;;;;;;;;;0.80;99.90;;;;;;2603284;54;20752;31
2022/03/06 01:56:57;;;;;;;43.75;23.95;;;0.80;99.90;;;;;;2603223;54;19934;31
2022/03/06 01:59:39;;;;;;;45.22;24.02;;;0.80;99.90;;;;;;2602375;54;20896;31
2022/03/06 02:02:15;;;;;;;38.25;23.08;;;0.80;99.90;;;;;;2621508;46;20029;31
2022/03/06 02:04:52;;;;;;;34.00;22.20;;;0.80;99.90;;;;;;2602286;54;20933;31
2022/03/06 02:07:27;;;;;;;41.60;23.40;;;0.80;99.90;;;;;;2621368;46;20030;31
2022/03/06 02:10:04;;;;;;;39.80;22.15;;;0.80;99.90;;;;;;2603091;54;20022;31
2022/03/06 02:12:42;;;;;;;36.53;21.70;;;0.80;99.90;;;;;;2603168;54;20030;31
2022/03/06 02:15:21;;;;;;;38.15;20.45;;;0.80;99.90;;;;;;2602832;54;20027;31
2022/03/06 02:17:56;;;;;;;43.03;23.45;;;0.80;99.90;;;;;;2603003;54;20117;31
2022/03/06 02:20:36;;;;;;;41.42;23.63;;;0.80;99.90;;;;;;2603152;54;20884;31
2022/03/06 02:23:15;;;;;;;39.45;23.20;;;0.80;99.90;;;;;;2611885;46;20890;31
2022/03/06 02:25:52;;;;;;;40.20;22.97;;;0.70;99.90;;;;;;2603041;54;20904;31
2022/03/06 02:28:28;;;;;;;40.75;24.10;;;0.80;99.90;;;;;;2603154;54;21218;31
2022/03/06 02:31:03;;;;;;;41.23;23.60;;;0.80;99.90;;;;;;2602333;54;20907;31
2022/03/06 02:33:38;;;;;;;40.30;23.13;;;0.80;99.90;;;;;;2602882;54;20048;31
2022/03/06 02:36:14;;;;;;;36.25;22.90;;;0.80;99.90;;;;;;2603106;54;20860;31
2022/03/06 02:38:53;;;;;;;39.80;23.30;;;0.80;99.90;;;;;;2602916;54;20046;31
2022/03/06 02:41:29;;;;;;;39.40;24.17;;;0.70;99.90;;;;;;2602072;54;20251;31
2022/03/06 02:44:04;;;;;;;40.50;24.20;;;0.70;99.90;;;;;;2602894;54;20888;31
2022/03/06 02:46:40;;;;;;;40.60;23.10;;;0.70;99.90;;;;;;2602846;54;20884;31
2022/03/06 02:49:16;;;;;;;38.33;22.70;;;0.70;99.90;;;;;;2603077;54;20916;31
2022/03/06 02:51:52;;;;;;;43.10;24.40;;;0.70;99.90;;;;;;2603186;54;20038;31
2022/03/06 02:54:30;;;;;;;37.25;23.02;;;0.70;99.90;;;;;;2602040;54;20097;31
2022/03/06 02:57:06;;;;;;;40.47;24.48;;;0.70;99.90;;;;;;2602857;54;20022;31
2022/03/06 02:59:41;;;;;;;39.83;24.83;;;0.70;99.90;;;;;;2602809;54;20038;31
2022/03/06 03:02:17;;;;;;;40.10;23.88;;;0.80;99.90;;;;;;2602954;54;20034;31
2022/03/06 03:04:52;;;;;;;42.90;25.03;;;0.70;99.90;;;;;;2603063;54;20026;31
2022/03/06 03:07:29;;;;;;;41.17;25.35;;;0.70;99.90;;;;;;2605947;46;20298;31
2022/03/06 03:10:09;;;;;;;40.13;24.42;;;0.70;99.90;;;;;;2621223;46;21004;31
2022/03/06 03:12:48;;;;;;;43.50;25.65;;;0.70;99.90;;;;;;2603026;54;20096;31
2022/03/06 03:15:26;;;;;;;43.70;25.50;;;0.70;99.90;;;;;;2621202;46;20769;31
2022/03/06 03:18:02;;;;;;;43.50;24.73;;;0.70;99.90;;;;;;2602816;54;20027;31
2022/03/06 03:20:37;;;;;;;44.15;23.75;;;0.70;99.90;;;;;;2602811;54;20921;31
2022/03/06 03:23:12;;;;;;;41.10;24.55;;;0.70;99.90;;;;;;2602599;54;20076;31
2022/03/06 03:25:50;;;;;;;43.70;24.33;;;0.70;99.90;;;;;;2621065;46;20038;31
2022/03/06 03:28:25;;;;;;;39.65;23.65;;;0.60;99.90;;;;;;2601942;54;20085;31
2022/03/06 03:31:00;;;;;;;42.03;24.00;;;0.60;99.90;;;;;;2602129;54;20090;31
2022/03/06 03:33:35;;;;;;;42.75;24.05;;;0.60;99.90;;;;;;2621141;46;20031;31
2022/03/06 03:36:13;;;;;;;41.57;23.60;;;0.70;99.90;;;;;;2621267;46;20034;31
2022/03/06 03:38:50;;;;;;;42.05;23.27;;;0.60;99.90;;;;;;2602723;54;21375;31
2022/03/06 03:41:31;;;;;;;41.13;23.40;;;0.60;99.90;;;;;;2602865;54;20030;31
2022/03/06 03:44:07;;;;;;;37.63;23.55;;;0.70;99.90;;;;;;2602831;54;20026;31
2022/03/06 03:46:42;;;;;;;;;;;0.60;99.90;;;;;;2603141;54;20033;31
2022/03/06 03:49:17;;;;;;;40.38;22.30;;;0.60;99.90;;;;;;2621337;46;19941;31
2022/03/06 03:51:52;;;;;;;39.85;23.40;;;0.70;99.90;;;;;;2601812;54;20949;31
2022/03/06 03:54:29;;;;;;;42.08;24.63;;;0.60;99.90;;;;;;2602649;54;20093;31
2022/03/06 03:57:08;;;;;;;46.38;25.13;;;0.60;99.90;;;;;;2602753;54;20034;31
2022/03/06 03:59:43;;;;;;;46.53;25.02;;;0.60;99.90;;;;;;2602454;54;20029;31
2022/03/06 04:02:19;;;;;;;42.55;23.95;;;0.60;99.90;;;;;;2602648;54;20872;31
2022/03/06 04:04:55;;;;;;;38.90;24.00;;;0.60;99.90;;;;;;2602056;54;20053;31
2022/03/06 04:07:30;;;;;;;41.40;24.57;;;0.60;99.90;;;;;;2619984;47;20853;31
2022/03/06 04:10:07;;;;;;;41.70;23.80;;;0.60;99.90;;;;;;2602679;54;21095;31
2022/03/06 04:12:46;;;;;;;41.80;24.50;;;0.60;99.90;;;;;;2602556;54;20029;31
2022/03/06 04:15:22;;;;;;;38.77;23.27;;;0.50;99.90;;;;;;2602010;54;20058;31
2022/03/06 04:17:58;;;;;;;37.10;22.77;;;0.50;99.90;;;;;;2602692;54;20755;31
2022/03/06 04:20:33;;;;;;;43.47;23.73;;;0.50;99.90;;;;;;2602544;54;20865;31
2022/03/06 04:23:08;;;;;;;38.28;23.55;;;0.50;99.90;;;;;;2602342;54;20094;31
2022/03/06 04:25:44;;;;;;;39.28;25.02;;;0.40;99.90;;;;;;2602516;54;20089;31
2022/03/06 04:28:22;;;;;;;44.17;23.75;;;0.50;99.90;;;;;;2602782;54;20037;31
2022/03/06 04:30:58;;;;;;;41.40;25.13;;;0.50;99.90;;;;;;2602700;54;20947;31
2022/03/06 04:33:35;;;;;;;45.05;24.90;;;0.50;99.90;;;;;;2602345;54;20985;31
2022/03/06 04:36:09;;;;;;;;;;;0.40;99.90;;;;;;2602894;54;20096;31
2022/03/06 04:38:44;;;;;;;41.83;23.65;;;0.50;99.90;;;;;;2603315;54;19942;31
2022/03/06 04:41:20;;;;;;;42.53;24.67;;;0.50;99.90;;;;;;2603189;54;20026;31
2022/03/06 04:43:58;;;;;;;40.33;23.10;;;0.40;99.90;;;;;;2621592;46;20054;31
2022/03/06 04:46:35;;;;;;;37.33;22.92;;;0.50;99.90;;;;;;2603427;54;20991;31
2022/03/06 04:49:10;;;;;;;38.15;21.75;;;0.50;99.90;;;;;;2603006;54;20121;31
2022/03/06 04:51:45;;;;;;;38.55;23.85;;;0.40;99.90;;;;;;2603302;54;20026;31
2022/03/06 04:54:20;;;;;;;42.83;25.45;;;0.40;99.90;;;;;;2621255;46;20176;31
2022/03/06 04:56:54;;;;;;;44.63;25.20;;;0.40;99.90;;;;;;2603244;54;20118;31
2022/03/06 04:59:35;;;;;;;42.95;23.75;;;0.40;99.90;;;;;;2603394;54;20030;31
2022/03/06 05:02:11;;;;;;;43.58;23.95;;;0.50;99.90;;;;;;2603388;54;19961;31
2022/03/06 05:04:50;;;;;;;41.70;24.23;;;0.40;99.90;;;;;;2603108;54;20894;31
2022/03/06 05:07:27;;;;;;;43.72;25.73;;;0.40;99.90;;;;;;2603272;54;20242;31
2022/03/06 05:10:01;;;;;;;42.38;24.25;;;0.40;99.90;;;;;;2603349;54;21281;31
2022/03/06 05:12:40;;;;;;;39.85;24.13;;;0.40;99.90;;;;;;2621690;46;20089;31
2022/03/06 05:15:19;;;;;;;40.00;23.85;;;0.40;99.90;;;;;;2621639;46;20877;31
2022/03/06 05:17:57;;;;;;;41.55;22.90;;;0.40;99.90;;;;;;2701841;39;20524;31
2022/03/06 05:20:29;;;;;;;45.75;25.05;;;0.40;99.90;;;;;;2604648;46;21132;31
2022/03/06 05:23:05;;;;;;;47.47;25.97;;;0.40;99.90;;;;;;2603349;54;20924;31
2022/03/06 05:25:40;;;;;;;51.00;27.13;;;0.40;99.90;;;;;;2603119;54;20243;31
2022/03/06 05:28:18;;;;;;;44.63;26.67;;;0.40;99.90;;;;;;2603133;54;20141;31
2022/03/06 05:30:55;;;;;;;46.63;27.95;;;0.50;99.90;;;;;;2603437;54;20801;31
2022/03/06 05:33:32;;;;;;;48.15;28.38;;;0.40;99.90;;;;;;2603136;54;20042;31
2022/03/06 05:36:07;;;;;;;52.95;29.52;;;0.50;99.90;;;;;;2603006;54;20069;31
2022/03/06 05:38:42;;;;;;;47.83;28.20;;;0.50;99.90;;;;;;2603404;54;20739;31
2022/03/06 05:41:17;;;;;;;49.33;29.38;;;0.40;99.90;;;;;;2602279;54;20069;31
2022/03/06 05:43:56;;;;;;;55.03;29.30;;;0.50;99.90;;;;;;2602293;54;20930;31
2022/03/06 05:46:34;;;;;;;56.60;28.90;;;0.60;99.90;;;;;;2602925;54;20104;31
2022/03/06 05:49:12;;;;;;;50.95;27.45;;;0.50;99.90;;;;;;2621511;46;20026;31
2022/03/06 05:51:47;;;;;;;48.65;26.20;;;0.50;99.90;;;;;;2602491;54;20129;31
2022/03/06 05:54:23;;;;;;;48.95;27.15;;;0.60;99.90;;;;;;2602995;54;20089;31
2022/03/06 05:56:58;;;;;;;57.53;32.10;;;0.60;99.90;;;;;;2603215;54;20026;31
2022/03/06 05:59:35;;;;;;;58.00;31.60;;;0.60;99.90;;;;;;2603312;54;20842;31
2022/03/06 06:02:28;;;;;;;60.55;32.30;;;0.60;99.90;;;;;;2603226;54;20068;31
2022/03/06 06:05:06;;;;;;;55.95;30.42;;;0.60;99.90;;;;;;2621512;46;20030;31
2022/03/06 06:07:44;;;;;;;57.92;34.95;;;0.70;99.90;;;;;;2603057;54;20050;31
2022/03/06 06:10:20;;;;;;;63.78;34.67;;;0.70;99.90;;;;;;2621249;46;20104;31
2022/03/06 06:12:57;;;;;;;58.15;33.65;;;0.60;99.90;;;;;;2602232;54;20038;31
2022/03/06 06:15:37;;;;;;;59.35;33.03;;;0.60;99.90;;;;;;2602577;54;20822;31
2022/03/06 06:18:25;;;;;;;51.78;29.90;;;0.60;99.90;;;;;;2603173;54;20825;31
2022/03/06 06:21:08;;;;;;;58.10;30.27;;;0.60;99.90;;;;;;2603202;54;20026;31
2022/03/06 06:23:43;;;;;;;53.80;30.98;;;0.70;99.90;;;;;;2621622;46;20874;31
2022/03/06 06:26:24;;;;;;;53.58;30.77;;;0.60;99.90;;;;;;2602830;54;20033;31
2022/03/06 06:29:00;;;;;;;56.08;32.38;;;0.60;99.90;;;;;;2603211;54;20891;31
2022/03/06 06:31:40;;;;;;;54.47;31.05;;;0.60;99.90;;;;;;2602266;54;20932;31
2022/03/06 06:34:23;;;;;;;64.28;36.50;;;0.70;99.90;;;;;;2602902;54;20842;31
2022/03/06 06:37:02;;;;;;;60.65;35.15;;;0.70;99.90;;;;;;2603089;54;20022;31
2022/03/06 06:39:37;;;;;;;63.40;39.30;;;0.60;99.90;;;;;;2603264;54;20026;31
2022/03/06 06:42:17;;;;;;;;;;;0.70;99.90;;;;;;2603191;54;20085;31
2022/03/06 06:44:55;;;;;;;66.72;37.95;;;0.70;99.90;;;;;;2602870;54;19989;31
2022/03/06 06:47:36;;;;;;;66.15;39.25;;;0.70;99.90;;;;;;2602981;54;20880;31
2022/03/06 06:50:16;;;;;;;68.25;40.47;;;0.70;99.90;;;;;;2603112;54;20833;31
2022/03/06 06:52:53;;;;;;;64.65;38.72;;;0.70;99.90;;;;;;2701293;39;21593;31
2022/03/06 06:55:34;;;;;;;61.20;35.43;;;0.70;99.90;;;;;;2602860;54;20027;31
2022/03/06 06:58:10;;;;;;;66.90;40.53;;;0.80;99.90;;;;;;2601905;54;20616;31
2022/03/06 07:00:43;;;;;;;64.17;37.37;;;0.80;99.90;;;;;;2602961;54;22410;31
2022/03/06 07:03:18;;;;;;;67.93;38.67;;;0.80;99.90;;;;;;2602039;54;20855;31
2022/03/06 07:05:59;;;;;;;60.45;33.28;;;0.80;99.90;;;;;;2619373;46;20061;31
2022/03/06 07:08:38;;;;;;;69.03;40.33;;;0.90;99.90;;;;;;2602818;54;21721;31
2022/03/06 07:11:13;;;;;;;70.47;41.70;;;0.90;99.90;;;;;;2602783;54;20055;31
2022/03/06 07:13:48;;;;;;;75.63;42.90;;;0.90;99.90;;;;;;2621248;46;20101;31
2022/03/06 07:16:25;;;;;;;73.60;45.13;;;0.90;99.90;;;;;;2602759;54;20060;31
2022/03/06 07:19:00;;;;;;;77.75;44.55;;;1.00;99.90;;;;;;2602756;54;20852;31
2022/03/06 07:21:51;;;;;;;;;;;1.00;99.90;;;;;;2603065;54;20116;31
2022/03/06 07:24:32;;;;;;;81.20;43.80;;;1.00;99.90;;;;;;2620850;46;20009;31
2022/03/06 07:27:07;;;;;;;63.35;35.10;;;1.00;99.90;;;;;;2621557;46;20030;31
2022/03/06 07:29:43;;;;;;;56.15;32.47;;;1.10;99.90;;;;;;2602724;54;21665;31
2022/03/06 07:32:19;;;;;;;44.50;28.87;;;1.10;99.90;;;;;;2602788;54;20615;31
2022/03/06 07:34:56;;;;;;;58.47;31.63;;;1.10;99.90;;;;;;2602869;54;21902;31
2022/03/06 07:37:32;;;;;;;59.15;32.38;;;1.20;99.90;;;;;;2602697;54;20297;31
2022/03/06 07:40:11;;;;;;;49.27;29.23;;;1.20;99.90;;;;;;2602954;54;20857;31
2022/03/06 07:42:46;;;;;;;76.17;40.43;;;1.20;99.90;;;;;;2602739;54;21092;31
2022/03/06 07:45:21;;;;;;;47.25;28.83;;;1.30;99.90;;;;;;2602555;54;20243;31
2022/03/06 07:47:56;;;;;;;48.80;28.70;;;1.30;99.90;;;;;;2602650;54;20069;31
2022/03/06 07:50:33;;;;;;;43.80;26.45;;;1.30;99.90;;;;;;2602896;54;20049;31
2022/03/06 07:53:08;;;;;;;45.03;26.85;;;1.40;99.90;;;;;;2602693;54;20908;31
2022/03/06 07:55:45;;;;;;;41.80;24.17;;;1.40;99.90;;;;;;2701370;39;22355;31
2022/03/06 07:58:24;;;;;;;42.60;24.02;;;1.40;99.90;;;;;;2602715;54;20027;31
2022/03/06 08:01:00;;;;;;;53.80;27.85;;;1.50;99.90;;;;;;2602775;54;20981;31
2022/03/06 08:03:35;;;;;;;74.45;39.53;;;1.50;99.90;;;;;;2701145;39;20540;31
2022/03/06 08:06:14;;;;;;;;;;;1.50;99.90;;;;;;2602533;54;20896;31
2022/03/06 08:08:52;;;;;;;41.05;23.20;;;1.60;99.90;;;;;;2701041;39;20451;31
2022/03/06 08:11:32;;;;;;;38.78;21.50;;;1.60;99.90;;;;;;2603478;54;20026;31
2022/03/06 08:14:07;;;;;;;36.75;23.73;;;1.70;99.90;;;;;;2603364;54;20030;31
2022/03/06 08:16:43;;;;;;;36.40;23.13;;;1.70;99.90;;;;;;2603445;54;20973;31
2022/03/06 08:19:18;;;;;;;;;;;1.70;99.90;;;;;;2603561;54;20092;31
2022/03/06 08:21:57;;;;;;;37.60;22.10;;;1.80;99.90;;;;;;2603303;54;19942;31
2022/03/06 08:24:33;;;;;;;39.00;22.70;;;1.90;99.90;;;;;;2621789;46;20171;31
2022/03/06 08:27:11;;;;;;;;;;;1.90;99.90;;;;;;2702418;39;20536;31
2022/03/06 08:29:48;;;;;;;35.88;22.83;;;1.90;99.90;;;;;;2603380;54;19941;31
2022/03/06 08:32:22;;;;;;;40.70;23.15;;;1.90;99.90;;;;;;2603413;54;20995;31
2022/03/06 08:34:58;;;;;;;33.15;20.40;;;1.90;99.90;;;;;;2603303;54;20033;31
2022/03/06 08:37:33;;;;;;;47.17;25.10;;;2.00;99.90;;;;;;2621703;46;20027;31
2022/03/06 08:40:19;;;;;;;42.30;23.25;;;2.00;99.90;;;;;;2603469;54;20027;31
2022/03/06 08:43:08;;;;;;;35.53;21.20;;;2.10;99.90;;;;;;2603337;54;20838;31
2022/03/06 08:45:45;;;;;;;31.13;17.98;;;2.10;99.90;;;;;;2621813;46;20866;31
2022/03/06 08:48:21;;;;;;;31.83;19.53;;;2.10;99.90;;;;;;2603122;54;20033;31
2022/03/06 08:50:56;;;;;;;31.00;19.30;;;2.20;99.90;;;;;;2603266;54;21101;31
2022/03/06 08:53:33;;;;;;;34.60;20.90;;;2.30;99.90;;;;;;2603484;54;20238;31
2022/03/06 08:56:09;;;;;;;39.72;21.33;;;2.30;99.90;;;;;;2603153;54;20034;31
2022/03/06 08:58:47;;;;;;;;;;;2.30;99.90;;;;;;2603481;54;20037;31
2022/03/06 09:01:23;;;;;;;47.95;27.42;;;2.40;99.90;;;;;;2603179;54;19941;31
2022/03/06 09:04:00;;;;;;;31.50;19.70;;;2.40;99.90;;;;;;2603328;54;20779;31
2022/03/06 09:06:35;;;;;;;33.25;19.98;;;2.50;99.90;;;;;;2603034;54;20904;31
2022/03/06 09:09:10;;;;;;;31.37;17.40;;;2.60;99.90;;;;;;2701835;39;21117;31
2022/03/06 09:11:45;;;;;;;28.02;18.33;;;2.60;99.90;;;;;;2603179;54;21094;31
2022/03/06 09:14:24;;;;;;;36.10;21.02;;;2.60;99.90;;;;;;2603196;54;20879;31
2022/03/06 09:17:01;;;;;;;34.05;19.73;;;2.70;99.90;;;;;;2621625;46;20035;31
2022/03/06 09:19:37;;;;;;;32.03;19.58;;;2.80;99.90;;;;;;2603162;54;20026;31
2022/03/06 09:22:12;;;;;;;31.35;19.33;;;2.80;99.90;;;;;;2603087;54;20880;31
2022/03/06 09:24:48;;;;;;;32.70;18.80;;;2.80;99.90;;;;;;2603078;54;20884;31
2022/03/06 09:27:23;;;;;;;29.50;18.33;;;2.80;99.90;;;;;;2602990;54;20893;31
2022/03/06 09:30:02;;;;;;;33.40;21.70;;;2.80;99.90;;;;;;2603083;54;20845;31
2022/03/06 09:32:40;;;;;;;31.17;20.27;;;2.80;99.90;;;;;;2609757;46;20928;31
2022/03/06 09:35:14;;;;;;;29.55;18.90;;;2.90;99.90;;;;;;2720635;39;22577;31
2022/03/06 09:37:49;;;;;;;28.88;19.13;;;2.90;99.90;;;;;;2602969;54;20053;31
2022/03/06 09:40:23;;;;;;;26.20;17.17;;;3.00;99.90;;;;;;2602398;54;20892;31
2022/03/06 09:42:58;;;;;;;27.90;18.10;;;3.00;99.90;;;;;;2603171;54;21171;31
2022/03/06 09:45:36;;;;;;;30.02;18.35;;;3.00;99.90;;;;;;2603022;54;20026;31
2022/03/06 09:48:13;;;;;;;35.60;21.03;;;3.00;99.90;;;;;;2603142;54;20027;31
2022/03/06 09:50:48;;;;;;;33.90;21.42;;;3.10;99.90;;;;;;2602226;54;20045;31
2022/03/06 09:53:23;;;;;;;31.53;19.70;;;3.10;99.90;;;;;;2603114;54;20085;31
2022/03/06 09:56:02;;;;;;;29.77;17.83;;;3.10;99.90;;;;;;2621450;46;20278;31
2022/03/06 09:58:39;;;;;;;28.60;18.00;;;3.10;99.90;;;;;;2603183;54;20027;31
2022/03/06 10:01:18;;;;;;;28.30;17.95;;;3.10;99.90;;;;;;2603098;54;21215;31
2022/03/06 10:03:55;;;;;;;48.25;26.50;;;3.10;99.90;;;;;;2602901;54;20111;31
2022/03/06 10:06:28;;;;;;;34.65;20.30;;;3.10;99.90;;;;;;2701476;39;22315;31
2022/03/06 10:09:08;;;;;;;26.58;18.02;;;3.20;99.90;;;;;;2602919;54;20057;31
2022/03/06 10:11:43;;;;;;;27.07;17.13;;;3.10;99.90;;;;;;2603130;54;20893;31
2022/03/06 10:14:36;;;;;;;27.93;17.80;;;3.10;99.90;;;;;;2602755;54;20093;31
2022/03/06 10:17:15;;;;;;;26.93;17.10;;;3.10;99.90;;;;;;2603008;54;20022;31
2022/03/06 10:19:52;;;;;;;27.30;16.20;;;3.20;99.90;;;;;;2603125;54;20141;31
2022/03/06 10:22:27;;;;;;;28.95;18.17;;;3.20;99.90;;;;;;2602997;54;21193;31
2022/03/06 10:25:05;;;;;;;30.30;21.80;;;3.10;99.90;;;;;;2602952;54;20030;31
2022/03/06 10:27:54;;;;;;;36.15;24.35;;;3.10;99.90;;;;;;2621150;46;21153;31
2022/03/06 10:30:34;;;;;;;28.70;19.07;;;3.10;99.90;;;;;;2621531;46;20892;31
2022/03/06 10:33:13;;;;;;;26.38;16.73;;;3.10;99.90;;;;;;2701147;39;22618;31
2022/03/06 10:35:54;;;;;;;24.17;16.03;;;3.10;99.90;;;;;;2603101;54;20911;31
2022/03/06 10:38:29;;;;;;;28.35;16.15;;;3.10;99.90;;;;;;2603087;54;22640;31
2022/03/06 10:41:05;;;;;;;26.10;15.85;;;3.10;99.90;;;;;;2602803;54;20034;31
2022/03/06 10:43:40;;;;;;;25.13;16.35;;;3.10;99.90;;;;;;2621337;46;20027;31
2022/03/06 10:46:18;;;;;;;26.20;16.13;;;3.10;99.90;;;;;;2602997;54;20089;31
2022/03/06 10:49:01;;;;;;;24.70;14.77;;;3.10;99.90;;;;;;2602994;54;20778;31
2022/03/06 10:51:40;;;;;;;24.48;16.02;;;3.10;99.90;;;;;;2602776;54;20037;31
2022/03/06 10:54:17;;;;;;;24.05;14.05;;;3.10;99.90;;;;;;2602822;54;20026;31
2022/03/06 10:56:55;;;;;;;20.53;14.03;;;3.10;99.90;;;;;;2603128;54;20031;31
2022/03/06 10:59:32;;;;;;;26.90;14.95;;;3.10;99.90;;;;;;2602798;54;21111;31
2022/03/06 11:02:10;;;;;;;46.97;23.60;;;3.10;99.90;;;;;;2602630;54;20038;31
2022/03/06 11:04:53;;;;;;;40.97;21.67;;;3.20;99.90;;;;;;2621238;46;20956;31
2022/03/06 11:07:30;;;;;;;35.40;20.17;;;3.20;99.90;;;;;;2602795;54;20917;31
2022/03/06 11:10:05;;;;;;;27.60;18.80;;;3.30;99.90;;;;;;2602755;54;20198;31
2022/03/06 11:12:40;;;;;;;24.73;16.40;;;3.10;99.90;;;;;;2602880;54;20053;31
2022/03/06 11:15:17;;;;;;;20.60;15.07;;;3.20;99.90;;;;;;2621432;46;20030;31
2022/03/06 11:17:53;;;;;;;25.55;15.45;;;3.10;99.90;;;;;;2602912;54;20030;31
2022/03/06 11:20:31;;;;;;;22.08;14.60;;;3.10;99.90;;;;;;2602602;54;20113;31
2022/03/06 11:23:10;;;;;;;30.33;18.50;;;3.10;99.90;;;;;;2621352;46;20926;31
2022/03/06 11:25:51;;;;;;;24.65;16.25;;;3.10;99.90;;;;;;2602443;54;20049;31
2022/03/06 11:28:30;;;;;;;21.25;14.80;;;3.10;99.90;;;;;;2602767;54;20937;31
2022/03/06 11:31:05;;;;;;;23.58;15.07;;;3.10;99.90;;;;;;2602746;54;20145;31
2022/03/06 11:33:43;;;;;;;24.98;15.98;;;3.10;99.90;;;;;;2602893;54;20033;31
2022/03/06 11:36:24;;;;;;;27.25;17.35;;;3.10;99.90;;;;;;2602865;54;20026;31
2022/03/06 11:38:59;;;;;;;23.95;15.65;;;3.00;99.90;;;;;;2602712;54;20037;31
2022/03/06 11:41:39;;;;;;;28.88;17.50;;;3.00;99.90;;;;;;2602652;54;20038;31
2022/03/06 11:44:35;;;;;;;25.30;17.73;;;3.00;99.90;;;;;;2601759;54;20052;31
2022/03/06 11:47:16;;;;;;;29.75;17.55;;;3.10;99.90;;;;;;2602671;54;20090;31
2022/03/06 11:49:55;;;;;;;27.02;19.02;;;3.00;99.90;;;;;;2602665;54;20034;31
2022/03/06 11:52:32;;;;;;;;;;;3.10;99.90;;;;;;2602709;54;21354;31
2022/03/06 11:55:06;;;;;;;;;;;3.10;99.90;;;;;;2602981;54;20787;31
2022/03/06 11:57:41;;;;;;;23.30;16.47;;;3.10;99.90;;;;;;2621088;46;19985;31
2022/03/06 12:00:20;;;;;;;28.75;17.05;;;3.20;99.90;;;;;;2602630;54;20031;31
2022/03/06 12:02:52;;;;;;;24.40;16.65;;;3.20;99.90;;;;;;2602844;54;21151;31
2022/03/06 12:05:46;;;;;;;24.67;15.38;;;3.20;99.90;;;;;;2602646;54;20818;31
2022/03/06 12:08:27;;;;;;;26.95;17.05;;;3.30;99.90;;;;;;2602465;54;20034;31
2022/03/06 12:11:02;;;;;;;23.40;15.75;;;3.30;99.90;;;;;;2601761;54;20027;31
2022/03/06 12:13:42;;;;;;;27.73;18.35;;;3.20;99.90;;;;;;2601738;54;20900;31
2022/03/06 12:16:17;;;;;;;23.70;17.10;;;3.30;99.90;;;;;;2601903;54;20030;31
2022/03/06 12:19:05;;;;;;;26.60;17.15;;;3.20;99.90;;;;;;2602364;54;20097;31
2022/03/06 12:21:41;;;;;;;26.58;17.10;;;3.20;99.90;;;;;;2602646;54;20965;31
2022/03/06 12:24:32;;;;;;;25.27;16.70;;;3.20;99.90;;;;;;2602664;54;20027;31
2022/03/06 12:30:00;;;;;;;27.88;18.15;;;3.10;99.90;;;;;;2602353;54;20031;31
2022/03/06 12:32:35;;;;;;;28.65;18.95;;;3.10;99.90;;;;;;2602470;54;20862;31
2022/03/06 12:35:14;;;;;;;25.90;18.10;;;3.10;99.90;;;;;;2620951;47;20027;31
2022/03/06 12:38:04;;;;;;;25.48;18.27;;;3.00;99.90;;;;;;2601746;54;20045;31
2022/03/06 12:40:45;;;;;;;26.52;18.00;;;3.00;99.90;;;;;;2602270;54;20745;31
2022/03/06 12:43:22;;;;;;;25.73;18.55;;;3.00;99.90;;;;;;2602409;54;20031;31
2022/03/06 12:45:58;;;;;;;26.75;18.60;;;2.90;99.90;;;;;;2621027;47;20093;31
2022/03/06 12:48:34;;;;;;;26.17;18.60;;;2.90;99.90;;;;;;2602514;54;20866;31
2022/03/06 12:51:10;;;;;;;32.35;18.95;;;2.90;99.90;;;;;;2620679;47;20132;31
2022/03/06 12:53:48;;;;;;;24.77;17.57;;;2.90;99.90;;;;;;2620755;47;20067;31
2022/03/06 12:59:05;;;;;;;31.90;19.57;;;2.80;99.90;;;;;;2603331;54;20033;31
2022/03/06 13:01:41;;;;;;;26.77;18.35;;;2.70;99.90;;;;;;2603198;54;20027;31
2022/03/06 13:04:18;;;;;;;24.85;16.40;;;2.70;99.90;;;;;;2621628;46;20779;31
2022/03/06 13:06:53;;;;;;;27.48;18.52;;;2.70;99.90;;;;;;2602526;54;20035;31
2022/03/06 13:09:34;;;;;;;27.75;18.13;;;2.60;99.90;;;;;;2603051;54;20974;31
2022/03/06 13:12:09;;;;;;;27.95;18.25;;;2.60;99.90;;;;;;2603225;54;20033;31
2022/03/06 13:14:46;;;;;;;32.63;18.35;;;2.60;99.90;;;;;;2603391;54;20944;31
2022/03/06 13:17:22;;;;;;;26.90;17.10;;;2.60;99.90;;;;;;2603146;54;20892;31
2022/03/06 13:19:57;;;;;;;25.42;18.42;;;2.60;99.90;;;;;;2603034;54;21102;31
2022/03/06 13:22:32;;;;;;;28.25;19.05;;;2.60;99.90;;;;;;2603045;54;20030;31
2022/03/06 13:25:08;;;;;;;23.25;16.45;;;2.50;99.90;;;;;;2602429;54;20850;31
2022/03/06 13:27:45;;;;;;;25.35;17.33;;;2.60;99.90;;;;;;2621440;46;21100;31
2022/03/06 13:30:24;;;;;;;29.73;19.13;;;2.50;99.90;;;;;;2603282;54;20034;31
2022/03/06 13:33:01;;;;;;;25.20;16.20;;;2.60;99.90;;;;;;2603245;54;20961;31
2022/03/06 13:35:38;;;;;;;25.15;15.95;;;2.60;99.90;;;;;;2602937;54;20242;31
2022/03/06 13:38:14;;;;;;;21.92;16.30;;;2.60;99.90;;;;;;2603236;54;20844;31
2022/03/06 13:40:53;;;;;;;26.25;18.05;;;2.50;99.90;;;;;;2602405;54;20023;31
2022/03/06 13:43:38;;;;;;;25.30;16.83;;;2.60;99.90;;;;;;2603255;54;20038;31
2022/03/06 13:46:17;;;;;;;25.35;17.85;;;2.50;99.90;;;;;;2603043;54;20022;31
2022/03/06 13:49:12;;;;;;;29.70;19.80;;;2.50;99.90;;;;;;2602945;54;21426;31